createdAt,value
2022-12-28T00:00:19.529Z,113.93
2022-12-28T00:02:49.222Z,102.75
2022-12-28T00:05:19.174Z,101.70
2022-12-28T00:07:48.664Z,103.22
2022-12-28T00:10:18.304Z,103.15
2022-12-28T00:13:07.942Z,95.80
2022-12-28T00:15:39.315Z,96.15
2022-12-28T00:18:09.084Z,100.70
2022-12-28T00:20:38.728Z,102.97
2022-12-28T00:23:08.572Z,102.00
2022-12-28T00:25:38.166Z,99.22
2022-12-28T00:28:07.931Z,101.97
2022-12-28T00:30:37.532Z,96.25
2022-12-28T00:33:07.081Z,99.40
2022-12-28T00:35:36.645Z,102.55
2022-12-28T00:38:06.368Z,116.70
2022-12-28T00:40:36.194Z,131.95
2022-12-28T00:43:05.838Z,161.80
2022-12-28T00:45:35.590Z,169.48
2022-12-28T00:48:05.421Z,183.13
2022-12-28T00:50:35.047Z,183.63
2022-12-28T00:53:05.324Z,189.65
2022-12-28T00:55:35.573Z,196.18
2022-12-28T00:58:08.616Z,192.07
2022-12-28T01:00:40.644Z,184.75
2022-12-28T01:03:13.408Z,170.55
2022-12-28T01:05:47.110Z,168.07
2022-12-28T01:08:18.146Z,173.68
2022-12-28T01:10:52.146Z,170.90
2022-12-28T01:13:26.870Z,172.45
2022-12-28T01:16:02.692Z,180.98
2022-12-28T01:18:34.067Z,201.18
2022-12-28T01:21:14.894Z,197.45
2022-12-28T01:23:46.381Z,211.70
2022-12-28T01:26:18.524Z,216.27
2022-12-28T01:28:49.350Z,223.27
2022-12-28T01:31:21.587Z,217.55
2022-12-28T01:33:53.845Z,203.27
2022-12-28T01:36:26.708Z,178.10
2022-12-28T01:39:00.060Z,173.52
2022-12-28T01:41:32.160Z,153.90
2022-12-28T01:44:02.383Z,157.75
2022-12-28T01:47:00.250Z,142.32
2022-12-28T01:49:40.204Z,137.07
2022-12-28T01:52:16.807Z,130.90
2022-12-28T01:55:22.039Z,117.68
2022-12-28T01:57:57.709Z,128.85
2022-12-28T02:00:28.104Z,119.72
2022-12-28T02:03:13.619Z,117.03
2022-12-28T02:05:47.625Z,116.70
2022-12-28T02:08:32.447Z,121.15
2022-12-28T02:11:03.289Z,113.70
2022-12-28T02:13:34.405Z,118.35
2022-12-28T02:16:07.059Z,115.18
2022-12-28T02:18:38.152Z,107.35
2022-12-28T02:21:19.903Z,101.15
2022-12-28T02:24:34.457Z,102.10
2022-12-28T02:27:16.757Z,104.30
2022-12-28T02:30:07.268Z,100.03
2022-12-28T02:32:48.921Z,108.57
2022-12-28T02:35:30.434Z,120.43
2022-12-28T02:38:23.417Z,109.55
2022-12-28T02:41:10.681Z,142.25
2022-12-28T02:43:41.998Z,113.93
2022-12-28T02:46:42.613Z,110.40
2022-12-28T02:49:40.290Z,102.70
2022-12-28T02:52:16.270Z,106.50
2022-12-28T02:55:23.049Z,107.40
2022-12-28T02:58:02.957Z,98.07
2022-12-28T03:01:00.693Z,102.70
2022-12-28T03:03:40.293Z,102.00
2022-12-28T03:06:41.636Z,104.80
2022-12-28T03:09:21.971Z,100.70
2022-12-28T03:12:06.783Z,103.30
2022-12-28T03:14:41.035Z,108.97
2022-12-28T03:17:33.190Z,101.88
2022-12-28T03:20:36.448Z,106.15
2022-12-28T03:23:27.452Z,106.35
2022-12-28T03:26:21.033Z,105.82
2022-12-28T03:29:10.924Z,107.10
2022-12-28T03:31:45.597Z,98.88
2022-12-28T03:34:18.222Z,103.43
2022-12-28T03:37:10.779Z,104.35
2022-12-28T03:40:05.127Z,105.55
2022-12-28T03:43:05.901Z,105.82
2022-12-28T03:45:54.525Z,102.70
2022-12-28T03:48:26.022Z,110.18
2022-12-28T03:50:57.083Z,111.78
2022-12-28T03:53:38.735Z,105.32
2022-12-28T03:56:14.693Z,106.32
2022-12-28T03:58:48.146Z,108.70
2022-12-28T04:01:22.489Z,114.53
2022-12-28T04:03:53.353Z,115.43
2022-12-28T04:06:23.726Z,109.55
2022-12-28T04:08:55.113Z,108.68
2022-12-28T04:11:27.051Z,100.25
2022-12-28T04:13:58.691Z,107.50
2022-12-28T04:16:35.854Z,112.05
2022-12-28T04:19:08.062Z,112.30
2022-12-28T04:21:38.446Z,111.63
2022-12-28T04:24:09.386Z,117.05
2022-12-28T04:26:39.736Z,129.20
2022-12-28T04:29:12.468Z,122.50
2022-12-28T04:32:12.084Z,120.25
2022-12-28T04:34:48.256Z,131.90
2022-12-28T04:37:20.955Z,130.73
2022-12-28T04:39:55.173Z,131.52
2022-12-28T04:42:29.233Z,142.27
2022-12-28T04:44:59.949Z,137.43
2022-12-28T04:47:30.662Z,141.18
2022-12-28T04:50:01.272Z,133.00
2022-12-28T04:52:31.613Z,131.60
2022-12-28T04:55:02.313Z,150.43
2022-12-28T04:57:32.529Z,144.13
2022-12-28T05:00:03.814Z,139.85
2022-12-28T05:02:34.099Z,157.23
2022-12-28T05:05:04.872Z,146.70
2022-12-28T05:07:35.323Z,140.73
2022-12-28T05:10:06.842Z,137.48
2022-12-28T05:12:37.636Z,140.77
2022-12-28T05:15:10.293Z,137.32
2022-12-28T05:17:40.438Z,138.20
2022-12-28T05:20:12.522Z,144.15
2022-12-28T05:22:43.758Z,144.38
2022-12-28T05:25:14.527Z,146.82
2022-12-28T05:27:44.855Z,140.35
2022-12-28T05:30:15.393Z,142.90
2022-12-28T05:32:45.808Z,141.68
2022-12-28T05:35:16.257Z,141.27
2022-12-28T05:37:46.532Z,143.68
2022-12-28T05:40:16.908Z,142.95
2022-12-28T05:42:51.399Z,142.63
2022-12-28T05:45:22.258Z,142.35
2022-12-28T05:47:53.610Z,143.38
2022-12-28T05:50:23.823Z,143.13
2022-12-28T05:52:54.692Z,147.55
2022-12-28T05:55:25.320Z,142.93
2022-12-28T05:57:58.283Z,143.60
2022-12-28T06:00:28.895Z,141.45
2022-12-28T06:02:59.251Z,144.88
2022-12-28T06:05:29.969Z,143.07
2022-12-28T06:08:01.197Z,143.25
2022-12-28T06:10:31.589Z,143.40
2022-12-28T06:13:02.689Z,152.07
2022-12-28T06:15:32.897Z,150.32
2022-12-28T06:18:03.816Z,151.15
2022-12-28T06:20:34.478Z,158.80
2022-12-28T06:23:05.496Z,159.80
2022-12-28T06:25:35.544Z,157.00
2022-12-28T06:28:06.463Z,159.30
2022-12-28T06:30:37.144Z,164.48
2022-12-28T06:33:07.857Z,169.32
2022-12-28T06:35:45.797Z,167.90
2022-12-28T06:38:16.815Z,163.75
2022-12-28T06:41:12.143Z,163.27
2022-12-28T06:43:39.148Z,160.48
2022-12-28T06:46:10.289Z,159.98
2022-12-28T06:48:42.664Z,169.95
2022-12-28T06:51:18.691Z,173.48
2022-12-28T06:53:51.127Z,166.73
2022-12-28T06:56:29.957Z,175.82
2022-12-28T06:59:03.726Z,171.57
2022-12-28T07:01:40.065Z,175.40
2022-12-28T07:04:12.546Z,173.15
2022-12-28T07:09:15.249Z,178.77
2022-12-28T07:11:46.040Z,186.25
2022-12-28T07:14:16.082Z,181.57
2022-12-28T07:16:50.040Z,178.23
2022-12-28T07:19:20.192Z,176.02
2022-12-28T07:21:51.891Z,176.32
2022-12-28T07:24:21.735Z,173.27
2022-12-28T07:26:51.253Z,166.55
2022-12-28T07:29:20.960Z,169.20
2022-12-28T07:31:50.552Z,166.95
2022-12-28T07:34:20.187Z,166.35
2022-12-28T07:36:51.025Z,163.48
2022-12-28T07:39:20.790Z,165.02
2022-12-28T07:41:50.149Z,157.63
2022-12-28T07:44:27.907Z,159.07
2022-12-28T07:46:59.646Z,160.27
2022-12-28T07:49:29.571Z,161.35
2022-12-28T07:51:59.402Z,158.38
2022-12-28T07:54:29.406Z,157.00
2022-12-28T07:56:59.268Z,156.55
2022-12-28T07:59:31.196Z,158.00
2022-12-28T08:02:01.912Z,156.85
2022-12-28T08:04:31.575Z,170.52
2022-12-28T08:07:00.880Z,171.93
2022-12-28T08:09:30.804Z,176.05
2022-12-28T08:12:00.395Z,173.52
2022-12-28T08:14:31.956Z,178.57
2022-12-28T08:17:01.823Z,179.50
2022-12-28T08:19:31.296Z,183.73
2022-12-28T08:22:02.000Z,208.77
2022-12-28T08:24:31.838Z,207.25
2022-12-28T08:27:01.764Z,251.18
2022-12-28T08:29:31.554Z,246.95
2022-12-28T08:32:01.258Z,251.13
2022-12-28T08:34:30.829Z,252.25
2022-12-28T08:37:01.135Z,260.02
2022-12-28T08:39:30.723Z,266.05
2022-12-28T08:42:00.321Z,271.80
2022-12-28T08:44:29.951Z,263.38
2022-12-28T08:46:59.875Z,283.52
2022-12-28T08:49:29.421Z,274.25
2022-12-28T08:51:59.417Z,308.58
2022-12-28T08:54:28.779Z,323.05
2022-12-28T08:56:59.646Z,336.15
2022-12-28T08:59:30.692Z,335.10
2022-12-28T09:02:13.485Z,330.30
2022-12-28T09:04:43.670Z,339.67
2022-12-28T09:07:13.530Z,292.45
2022-12-28T09:09:43.050Z,288.20
2022-12-28T09:12:12.835Z,249.10
2022-12-28T09:14:42.550Z,238.35
2022-12-28T09:17:12.665Z,217.80
2022-12-28T09:19:42.319Z,221.07
2022-12-28T09:22:11.898Z,226.50
2022-12-28T09:24:41.337Z,230.48
2022-12-28T09:27:10.917Z,240.07
2022-12-28T09:29:40.385Z,242.45
2022-12-28T09:32:09.859Z,230.55
2022-12-28T09:34:39.483Z,225.68
2022-12-28T09:37:09.827Z,215.90
2022-12-28T09:39:39.865Z,204.77
2022-12-28T09:42:25.062Z,202.80
2022-12-28T09:47:48.492Z,193.27
2022-12-28T09:50:18.000Z,186.40
2022-12-28T09:53:17.044Z,180.90
2022-12-28T09:55:56.062Z,181.48
2022-12-28T09:58:25.977Z,183.98
2022-12-28T10:00:59.359Z,172.82
2022-12-28T10:03:38.764Z,162.20
2022-12-28T10:06:22.569Z,167.48
2022-12-28T10:08:55.488Z,151.82
2022-12-28T10:11:33.177Z,158.27
2022-12-28T10:14:14.085Z,158.05
2022-12-28T10:16:48.434Z,158.77
2022-12-28T10:19:22.619Z,160.90
2022-12-28T10:21:58.460Z,167.70
2022-12-28T10:24:33.391Z,174.00
2022-12-28T10:27:06.858Z,175.32
2022-12-28T10:32:07.833Z,158.77
2022-12-28T10:34:38.306Z,156.50
2022-12-28T10:37:19.099Z,138.18
2022-12-28T10:40:04.957Z,136.73
2022-12-28T10:42:42.820Z,129.60
2022-12-28T10:45:26.959Z,123.63
2022-12-28T10:47:58.438Z,115.10
2022-12-28T10:50:56.067Z,109.30
2022-12-28T10:53:35.579Z,105.68
2022-12-28T10:56:25.293Z,106.30
2022-12-28T10:59:16.378Z,108.60
2022-12-28T11:01:46.800Z,107.38
2022-12-28T11:04:25.785Z,104.38
2022-12-28T11:07:03.670Z,93.25
2022-12-28T11:09:37.860Z,94.30
2022-12-28T11:12:26.096Z,92.57
2022-12-28T11:14:57.535Z,95.00
2022-12-28T11:17:30.100Z,89.43
2022-12-28T11:20:25.971Z,85.32
2022-12-28T11:22:56.264Z,85.00
2022-12-28T11:25:32.715Z,87.35
2022-12-28T11:28:08.533Z,86.88
2022-12-28T11:30:39.363Z,91.30
2022-12-28T11:33:11.099Z,86.15
2022-12-28T11:35:45.400Z,88.57
2022-12-28T11:38:42.058Z,87.32
2022-12-28T11:41:33.455Z,90.47
2022-12-28T11:44:10.627Z,91.68
2022-12-28T11:46:42.376Z,93.90
2022-12-28T11:49:33.981Z,99.97
2022-12-28T11:52:21.935Z,98.43
2022-12-28T11:54:59.938Z,98.70
2022-12-28T11:57:44.470Z,98.75
2022-12-28T12:00:26.087Z,100.47
2022-12-28T12:03:03.138Z,98.65
2022-12-28T12:05:39.301Z,101.03
2022-12-28T12:08:18.264Z,102.72
2022-12-28T12:10:49.217Z,103.60
2022-12-28T12:13:28.004Z,106.60
2022-12-28T12:16:08.269Z,103.25
2022-12-28T12:18:50.045Z,104.88
2022-12-28T12:21:32.487Z,110.85
2022-12-28T12:24:12.076Z,110.38
2022-12-28T12:26:55.557Z,107.85
2022-12-28T12:29:43.275Z,108.80
2022-12-28T12:32:34.575Z,111.15
2022-12-28T12:35:09.007Z,116.47
2022-12-28T12:38:04.992Z,118.85
2022-12-28T12:40:46.094Z,119.68
2022-12-28T12:43:42.331Z,119.28
2022-12-28T12:46:44.871Z,109.75
2022-12-28T12:49:50.034Z,112.93
2022-12-28T12:52:19.715Z,113.15
2022-12-28T12:55:14.548Z,114.97
2022-12-28T12:58:19.965Z,113.78
2022-12-28T13:01:11.108Z,114.90
2022-12-28T13:03:53.979Z,115.57
2022-12-28T13:09:04.988Z,108.65
2022-12-28T13:11:38.954Z,125.22
2022-12-28T13:14:16.456Z,128.50
2022-12-28T13:16:53.636Z,133.52
2022-12-28T13:19:28.923Z,134.60
2022-12-28T13:22:00.391Z,131.05
2022-12-28T13:24:33.061Z,146.68
2022-12-28T13:29:41.331Z,129.13
2022-12-28T13:32:34.320Z,137.40
2022-12-28T13:35:32.047Z,146.95
2022-12-28T13:38:10.026Z,157.65
2022-12-28T13:40:41.687Z,166.13
2022-12-28T13:43:48.070Z,170.55
2022-12-28T13:46:20.680Z,172.95
2022-12-28T13:48:55.917Z,177.80
2022-12-28T13:51:26.596Z,179.70
2022-12-28T13:54:02.517Z,200.90
2022-12-28T13:56:34.366Z,199.20
2022-12-28T13:59:09.766Z,203.20
2022-12-28T14:01:43.984Z,207.55
2022-12-28T14:07:14.743Z,203.77
2022-12-28T14:09:45.362Z,208.27
2022-12-28T14:12:16.313Z,216.88
2022-12-28T14:14:47.091Z,225.18
2022-12-28T14:17:17.831Z,225.85
2022-12-28T14:19:48.125Z,261.77
2022-12-28T14:22:32.637Z,232.55
2022-12-28T14:25:09.309Z,236.52
2022-12-28T14:27:43.929Z,267.65
2022-12-28T14:30:28.267Z,230.27
2022-12-28T14:32:59.514Z,241.55
2022-12-28T14:35:30.446Z,251.50
2022-12-28T14:38:02.368Z,267.95
2022-12-28T14:40:36.190Z,276.17
2022-12-28T14:43:24.082Z,274.85
2022-12-28T14:46:05.160Z,238.45
2022-12-28T14:48:41.565Z,243.52
2022-12-28T14:51:17.530Z,254.00
2022-12-28T14:53:47.647Z,261.60
2022-12-28T14:56:21.008Z,273.27
2022-12-28T14:58:55.279Z,280.67
2022-12-28T15:01:26.126Z,278.90
2022-12-28T15:03:58.717Z,283.95
2022-12-28T15:06:31.029Z,281.63
2022-12-28T15:09:02.554Z,275.98
2022-12-28T15:11:32.561Z,270.48
2022-12-28T15:14:02.683Z,276.35
2022-12-28T15:16:32.789Z,272.23
2022-12-28T15:19:03.766Z,273.90
2022-12-28T15:21:34.533Z,282.38
2022-12-28T15:24:04.286Z,271.65
2022-12-28T15:26:34.037Z,280.70
2022-12-28T15:29:07.141Z,280.83
2022-12-28T15:31:37.104Z,265.02
2022-12-28T15:34:06.835Z,271.63
2022-12-28T15:36:37.197Z,276.80
2022-12-28T15:39:07.395Z,274.65
2022-12-28T15:41:50.681Z,278.27
2022-12-28T15:44:22.475Z,278.92
2022-12-28T15:46:53.067Z,278.63
2022-12-28T15:49:23.659Z,278.30
2022-12-28T15:51:54.044Z,303.88
2022-12-28T15:54:24.703Z,304.00
2022-12-28T15:56:56.502Z,304.38
2022-12-28T15:59:27.927Z,305.90
2022-12-28T16:01:58.251Z,304.90
2022-12-28T16:04:28.763Z,299.70
2022-12-28T16:06:58.854Z,289.85
2022-12-28T16:09:29.053Z,291.30
2022-12-28T16:11:59.334Z,298.73
2022-12-28T16:14:29.256Z,283.98
2022-12-28T16:16:59.474Z,279.80
2022-12-28T16:19:29.998Z,296.85
2022-12-28T16:22:00.116Z,297.10
2022-12-28T16:24:30.247Z,294.65
2022-12-28T16:27:00.502Z,284.48
2022-12-28T16:29:30.825Z,283.10
2022-12-28T16:32:02.801Z,280.38
2022-12-28T16:34:33.677Z,277.67
2022-12-28T16:37:03.910Z,283.98
2022-12-28T16:39:34.484Z,290.20
2022-12-28T16:42:07.647Z,271.67
2022-12-28T16:44:38.401Z,264.92
2022-12-28T16:47:09.353Z,259.25
2022-12-28T16:49:42.242Z,257.52
2022-12-28T16:52:12.805Z,252.95
2022-12-28T16:54:42.974Z,252.40
2022-12-28T16:57:13.323Z,241.48
2022-12-28T16:59:43.622Z,244.98
2022-12-28T17:02:16.120Z,245.60
2022-12-28T17:04:46.870Z,235.15
2022-12-28T17:07:17.961Z,234.05
2022-12-28T17:09:50.329Z,239.23
2022-12-28T17:12:21.062Z,237.27
2022-12-28T17:14:51.694Z,236.55
2022-12-28T17:17:22.161Z,236.38
2022-12-28T17:19:52.691Z,244.18
2022-12-28T17:22:24.329Z,251.55
2022-12-28T17:24:54.941Z,247.50
2022-12-28T17:27:25.551Z,252.73
2022-12-28T17:29:55.865Z,252.13
2022-12-28T17:32:26.308Z,247.73
2022-12-28T17:34:56.843Z,246.80
2022-12-28T17:37:27.162Z,251.45
2022-12-28T17:39:57.632Z,260.60
2022-12-28T17:42:27.855Z,255.18
2022-12-28T17:44:58.115Z,250.85
2022-12-28T17:47:28.730Z,252.38
2022-12-28T17:49:58.858Z,250.77
2022-12-28T17:52:28.773Z,252.15
2022-12-28T17:54:59.239Z,250.45
2022-12-28T17:57:31.754Z,243.05
2022-12-28T18:00:04.506Z,245.90
2022-12-28T18:02:42.042Z,244.20
2022-12-28T18:05:12.407Z,249.27
2022-12-28T18:07:42.219Z,242.70
2022-12-28T18:10:12.348Z,247.27
2022-12-28T18:12:42.212Z,243.60
2022-12-28T18:15:11.951Z,244.50
2022-12-28T18:17:41.498Z,251.43
2022-12-28T18:20:11.731Z,243.98
2022-12-28T18:22:41.699Z,239.32
2022-12-28T18:25:11.255Z,242.27
2022-12-28T18:27:41.078Z,244.73
2022-12-28T18:30:11.221Z,248.88
2022-12-28T18:32:40.880Z,244.45
2022-12-28T18:35:11.544Z,238.10
2022-12-28T18:37:41.016Z,243.73
2022-12-28T18:40:11.951Z,248.00
2022-12-28T18:42:41.621Z,246.38
2022-12-28T18:45:11.758Z,247.20
2022-12-28T18:47:41.388Z,246.93
2022-12-28T18:50:11.681Z,249.05
2022-12-28T18:52:42.078Z,246.23
2022-12-28T18:55:11.770Z,248.50
2022-12-28T18:57:41.161Z,244.88
2022-12-28T19:00:11.937Z,242.13
2022-12-28T19:02:41.486Z,241.38
2022-12-28T19:05:11.493Z,251.38
2022-12-28T19:07:45.729Z,244.85
2022-12-28T19:10:18.940Z,240.65
2022-12-28T19:12:48.595Z,248.57
2022-12-28T19:15:19.793Z,238.00
2022-12-28T19:17:49.285Z,244.77
2022-12-28T19:20:18.753Z,244.85
2022-12-28T19:22:48.402Z,235.70
2022-12-28T19:25:18.090Z,246.13
2022-12-28T19:27:47.585Z,246.90
2022-12-28T19:30:17.184Z,235.77
2022-12-28T19:32:46.687Z,242.63
2022-12-28T19:35:19.596Z,244.82
2022-12-28T19:37:49.459Z,248.35
2022-12-28T19:40:18.859Z,237.40
2022-12-28T19:42:48.837Z,240.68
2022-12-28T19:45:19.456Z,240.55
2022-12-28T19:47:49.117Z,236.27
2022-12-28T19:50:18.706Z,236.35
2022-12-28T19:52:48.473Z,230.75
2022-12-28T19:55:18.252Z,241.15
2022-12-28T19:57:47.936Z,235.15
2022-12-28T20:00:18.131Z,236.23
2022-12-28T20:02:47.906Z,233.57
2022-12-28T20:05:18.290Z,235.00
2022-12-28T20:07:48.091Z,236.15
2022-12-28T20:10:19.254Z,226.43
2022-12-28T20:12:49.143Z,228.80
2022-12-28T20:15:18.954Z,231.13
2022-12-28T20:17:48.762Z,227.48
2022-12-28T20:20:21.369Z,231.65
2022-12-28T20:22:54.970Z,227.00
2022-12-28T20:25:24.661Z,227.63
2022-12-28T20:27:54.523Z,229.10
2022-12-28T20:30:24.099Z,225.38
2022-12-28T20:32:53.846Z,229.93
2022-12-28T20:35:23.475Z,227.30
2022-12-28T20:37:53.276Z,225.55
2022-12-28T20:40:22.953Z,230.77
2022-12-28T20:43:11.323Z,223.23
2022-12-28T20:45:41.585Z,217.93
2022-12-28T20:48:11.424Z,212.18
2022-12-28T20:50:41.632Z,217.68
2022-12-28T20:53:11.651Z,213.50
2022-12-28T20:55:41.489Z,208.52
2022-12-28T20:58:11.732Z,209.55
2022-12-28T21:00:41.628Z,216.75
2022-12-28T21:03:11.286Z,220.52
2022-12-28T21:05:40.848Z,220.13
2022-12-28T21:08:10.573Z,211.02
2022-12-28T21:10:40.238Z,208.30
2022-12-28T21:13:09.867Z,209.32
2022-12-28T21:15:45.009Z,205.00
2022-12-28T21:18:14.830Z,206.20
2022-12-28T21:21:02.478Z,208.40
2022-12-28T21:23:33.751Z,206.23
2022-12-28T21:26:13.719Z,211.45
2022-12-28T21:28:44.570Z,202.68
2022-12-28T21:31:15.664Z,207.70
2022-12-28T21:33:45.370Z,213.73
2022-12-28T21:36:20.675Z,214.93
2022-12-28T21:38:51.078Z,208.95
2022-12-28T21:41:41.477Z,215.63
2022-12-28T21:44:14.009Z,210.88
2022-12-28T21:46:44.648Z,216.85
2022-12-28T21:49:14.962Z,209.77
2022-12-28T21:51:44.819Z,212.15
2022-12-28T21:54:20.166Z,208.93
2022-12-28T21:56:54.132Z,213.52
2022-12-28T21:59:26.190Z,209.95
2022-12-28T22:02:14.580Z,206.77
2022-12-28T22:05:03.695Z,204.35
2022-12-28T22:07:36.126Z,201.15
2022-12-28T22:10:24.323Z,202.38
2022-12-28T22:12:54.027Z,203.35
2022-12-28T22:15:44.299Z,206.38
2022-12-28T22:21:16.635Z,203.70
2022-12-28T22:23:46.285Z,205.57
2022-12-28T22:26:15.965Z,206.10
2022-12-28T22:28:45.810Z,217.23
2022-12-28T22:31:15.567Z,206.18
2022-12-28T22:33:45.210Z,203.65
2022-12-28T22:36:17.358Z,212.52
2022-12-28T22:38:47.559Z,210.00
2022-12-28T22:41:17.202Z,212.15
2022-12-28T22:43:52.008Z,212.25
2022-12-28T22:46:22.943Z,209.95
2022-12-28T22:48:52.868Z,208.88
2022-12-28T22:51:22.307Z,213.63
2022-12-28T22:53:51.968Z,211.65
2022-12-28T22:56:21.969Z,205.23
2022-12-28T22:58:51.486Z,202.30
2022-12-28T23:01:22.129Z,207.20
2022-12-28T23:03:51.683Z,211.50
2022-12-28T23:06:21.915Z,214.02
2022-12-28T23:08:51.731Z,209.63
2022-12-28T23:11:42.835Z,212.15
2022-12-28T23:14:37.217Z,206.07
2022-12-28T23:17:11.413Z,206.25
2022-12-28T23:19:59.838Z,206.53
2022-12-28T23:22:49.851Z,208.07
2022-12-28T23:25:40.983Z,209.95
2022-12-28T23:28:14.376Z,209.25
2022-12-28T23:30:48.088Z,211.13
2022-12-28T23:33:19.224Z,206.82
2022-12-28T23:35:49.600Z,215.55
2022-12-28T23:38:19.297Z,212.10
2022-12-28T23:41:08.747Z,210.25
2022-12-28T23:43:38.283Z,206.70
2022-12-28T23:46:07.994Z,213.57
2022-12-28T23:48:38.108Z,212.55
2022-12-28T23:51:09.286Z,211.65
2022-12-28T23:53:39.316Z,213.23
2022-12-28T23:56:09.541Z,217.13
2022-12-28T23:58:39.001Z,220.18
